Terminal Aerodrome Forecast
Issued by NWS

Home | Current Version | Previous Version | Text Only | Print | Product List | Glossary On
Versions: 1 2 3 4 5 6 7 8 9 10 11 12 13 14
000
FTUS42 TJSJ 302300
TAFJMZ
TAF
TJMZ 302333Z 0100/0124 VRB03KT P6SM FEW040
     FM011300 07005KT P6SM FEW030
     FM011800 27009KT P6SM VCSH SCT025 BKN040
     FM012200 06006KT P6SM SCT025 SCT040
      AMD NOT SKED TIL 011100=

USA.gov is the U.S. government's official web portal to all federal, state and local government web resources and services.